NCAR-RAP Real-Time Weather Data

Output produced by METARs form (25 May 2016  01:18 UTC)
found at http://weather.rap.ucar.edu/surface/
 
Conditions at: KSDF observed 25 May 2016  00:56 UTC
Temperature: 26.1°C (79°F)
Dewpoint: 12.2°C (54°F) [RH = 42%]
Pressure (altimeter): 30.05 inches Hg (1017.7 mb)
[Sea-level pressure: 1017.4 mb]
Winds: from the SSW (200 degrees) at 6 MPH (5 knots; 2.6 m/s)
Visibility: 10 or more miles (16+ km)
Ceiling: 8500 feet AGL
Clouds: few clouds at 7000 feet AGL
broken clouds at 8500 feet AGL
broken clouds at 15000 feet AGL
broken clouds at 25000 feet AGL
Present Weather: no significant weather observed at this time
KSDF 250056Z 20005KT 10SM FEW070 BKN085 BKN150 BKN250 26/12 A3005 RMK AO2 SLP174 T02610122